Milton, Washington
Current Conditions -  °F | °C
As of 12:15 AM on Thursday 29 Jan 2015 (Local Time) from KPLU Reporting Station
Drizzle Drizzle  
Wind Chill: 41°   Ceiling: 200
Heat Index: 41°   Visibility: 2mi
Dew Point: 41°   Wind: 0mph
Humidity: 100%   Direction: NA
Pressure: 30.36"   Gusts: NA
Location:  47.25°N, 122.31°W
Report Text: KPLU 290815Z AUTO 00000KT 2SM -DZ OVC002 05/05 A3036 RMK AO2
Loading
Personal Weather Stations






























Interactive Weather Map New forecast layout! Learn more

10-Day Weather Forecast

Advertisements
Track Severe Weather on mobile